createdAt,value
2022-09-03T00:01:16.601Z,17.81
2022-09-03T00:03:51.016Z,17.78
2022-09-03T00:06:20.580Z,17.78
2022-09-03T00:09:21.352Z,17.68
2022-09-03T00:11:58.253Z,17.62
2022-09-03T00:14:33.769Z,17.58
2022-09-03T00:17:10.713Z,17.56
2022-09-03T00:19:54.444Z,17.68
2022-09-03T00:22:46.946Z,17.60
2022-09-03T00:25:17.940Z,17.54
2022-09-03T00:27:48.446Z,17.56
2022-09-03T00:30:17.526Z,17.53
2022-09-03T00:33:09.983Z,17.47
2022-09-03T00:36:02.993Z,17.36
2022-09-03T00:38:31.005Z,17.21
2022-09-03T00:41:26.778Z,17.25
2022-09-03T00:44:18.185Z,17.16
2022-09-03T00:47:09.489Z,17.18
2022-09-03T00:49:57.633Z,17.10
2022-09-03T00:52:45.458Z,17.08
2022-09-03T00:55:49.016Z,17.09
2022-09-03T00:58:41.769Z,17.06
2022-09-03T01:01:20.485Z,16.99
2022-09-03T01:03:56.581Z,17.08
2022-09-03T01:06:34.149Z,17.07
2022-09-03T01:09:21.749Z,17.00
2022-09-03T01:12:00.943Z,16.96
2022-09-03T01:14:35.427Z,16.93
2022-09-03T01:17:05.481Z,17.01
2022-09-03T01:19:40.797Z,17.07
2022-09-03T01:22:25.441Z,17.00
2022-09-03T01:25:14.604Z,16.96
2022-09-03T01:27:44.085Z,16.93
2022-09-03T01:30:17.611Z,16.89
2022-09-03T01:32:57.285Z,16.88
2022-09-03T01:35:38.357Z,16.91
2022-09-03T01:38:27.834Z,16.94
2022-09-03T01:41:15.250Z,16.85
2022-09-03T01:43:50.113Z,16.83
2022-09-03T01:46:25.063Z,16.83
2022-09-03T01:48:51.531Z,16.76
2022-09-03T01:51:24.302Z,16.68
2022-09-03T01:53:59.999Z,16.66
2022-09-03T01:56:44.763Z,16.72
2022-09-03T01:59:32.541Z,16.63
2022-09-03T02:02:01.863Z,16.63
2022-09-03T02:04:28.765Z,16.65
2022-09-03T02:06:59.165Z,16.67
2022-09-03T02:09:30.846Z,16.68
2022-09-03T02:12:11.394Z,16.70
2022-09-03T02:14:38.019Z,16.62
2022-09-03T02:17:06.566Z,16.63
2022-09-03T02:19:34.181Z,16.60
2022-09-03T02:22:00.833Z,16.57
2022-09-03T02:24:28.822Z,16.59
2022-09-03T02:26:56.292Z,16.53
2022-09-03T02:29:25.364Z,16.46
2022-09-03T02:31:53.496Z,16.46
2022-09-03T02:34:25.036Z,16.46
2022-09-03T02:36:51.529Z,16.52
2022-09-03T02:39:18.093Z,16.48
2022-09-03T02:41:44.655Z,16.41
2022-09-03T02:44:21.486Z,16.49
2022-09-03T02:46:52.365Z,16.37
2022-09-03T02:49:18.826Z,16.33
2022-09-03T02:51:45.337Z,16.26
2022-09-03T02:54:12.630Z,16.24
2022-09-03T02:56:39.546Z,16.17
2022-09-03T02:59:08.769Z,16.19
2022-09-03T03:01:36.218Z,16.11
2022-09-03T03:04:03.641Z,16.11
2022-09-03T03:06:30.087Z,16.12
2022-09-03T03:08:56.525Z,16.06
2022-09-03T03:11:23.289Z,16.00
2022-09-03T03:13:49.708Z,16.03
2022-09-03T03:16:16.800Z,16.04
2022-09-03T03:18:44.032Z,16.17
2022-09-03T03:21:13.110Z,16.10
2022-09-03T03:23:40.141Z,16.02
2022-09-03T03:26:10.112Z,15.94
2022-09-03T03:28:37.324Z,15.94
2022-09-03T03:31:09.504Z,15.99
2022-09-03T03:33:36.135Z,15.93
2022-09-03T03:36:08.300Z,15.95
2022-09-03T03:38:36.152Z,15.99
2022-09-03T03:41:17.751Z,15.94
2022-09-03T03:43:44.493Z,16.01
2022-09-03T03:46:12.015Z,16.02
2022-09-03T03:48:38.918Z,16.11
2022-09-03T03:51:10.388Z,16.11
2022-09-03T03:53:38.724Z,16.09
2022-09-03T03:56:07.442Z,16.13
2022-09-03T03:58:34.375Z,16.15
2022-09-03T04:01:18.342Z,16.17
2022-09-03T04:03:45.587Z,16.12
2022-09-03T04:06:14.592Z,16.13
2022-09-03T04:08:42.862Z,16.17
2022-09-03T04:11:14.189Z,16.21
2022-09-03T04:13:43.162Z,16.15
2022-09-03T04:16:12.165Z,16.17
2022-09-03T04:18:39.708Z,16.19
2022-09-03T04:21:15.038Z,16.22
2022-09-03T04:23:45.473Z,16.21
2022-09-03T04:26:14.974Z,16.12
2022-09-03T04:28:41.866Z,16.06
2022-09-03T04:31:10.628Z,16.03
2022-09-03T04:33:37.901Z,16.02
2022-09-03T04:36:13.144Z,16.06
2022-09-03T04:38:41.739Z,16.02
2022-09-03T04:41:10.166Z,16.01
2022-09-03T04:43:37.158Z,15.98
2022-09-03T04:46:08.436Z,15.93
2022-09-03T04:48:43.462Z,15.95
2022-09-03T04:51:12.950Z,16.03
2022-09-03T04:53:44.558Z,15.98
2022-09-03T04:56:15.929Z,15.96
2022-09-03T04:58:44.071Z,15.97
2022-09-03T05:01:12.515Z,15.93
2022-09-03T05:03:39.071Z,15.98
2022-09-03T05:06:05.625Z,15.94
2022-09-03T05:08:33.933Z,15.88
2022-09-03T05:11:00.697Z,15.96
2022-09-03T05:13:27.650Z,15.99
2022-09-03T05:16:02.639Z,16.01
2022-09-03T05:18:29.712Z,16.03
2022-09-03T05:21:07.687Z,16.01
2022-09-03T05:23:39.315Z,16.09
2022-09-03T05:26:08.971Z,16.05
2022-09-03T05:28:39.187Z,15.99
2022-09-03T05:31:08.524Z,16.10
2022-09-03T05:33:36.294Z,16.10
2022-09-03T05:36:04.586Z,16.14
2022-09-03T05:38:31.422Z,16.11
2022-09-03T05:41:02.579Z,16.22
2022-09-03T05:43:30.154Z,16.28
2022-09-03T05:46:00.959Z,16.31
2022-09-03T05:48:28.971Z,16.32
2022-09-03T05:51:06.697Z,16.57
2022-09-03T05:53:35.678Z,16.79
2022-09-03T05:56:05.271Z,17.20
2022-09-03T05:58:33.031Z,17.33
2022-09-03T06:00:59.490Z,17.07
2022-09-03T06:03:26.404Z,16.74
2022-09-03T06:05:54.279Z,16.81
2022-09-03T06:08:22.108Z,17.17
2022-09-03T06:10:48.582Z,17.41
2022-09-03T06:13:15.250Z,17.54
2022-09-03T06:15:41.788Z,19.90
2022-09-03T06:18:08.251Z,21.56
2022-09-03T06:20:37.155Z,22.01
2022-09-03T06:23:04.163Z,20.77
2022-09-03T06:25:30.608Z,22.00
2022-09-03T06:27:57.852Z,22.27
2022-09-03T06:30:24.561Z,23.10
2022-09-03T06:32:51.008Z,24.07
2022-09-03T06:35:17.430Z,24.96
2022-09-03T06:37:44.211Z,24.62
2022-09-03T06:40:11.768Z,26.66
2022-09-03T06:42:42.095Z,27.87
2022-09-03T06:45:12.475Z,27.68
2022-09-03T06:47:38.991Z,28.57
2022-09-03T06:50:08.150Z,29.51
2022-09-03T06:52:34.809Z,29.38
2022-09-03T06:55:01.286Z,28.66
2022-09-03T06:57:27.744Z,28.37
2022-09-03T06:59:54.368Z,27.71
2022-09-03T07:02:20.881Z,28.21
2022-09-03T07:04:48.368Z,28.88
2022-09-03T07:07:14.954Z,28.67
2022-09-03T07:09:44.057Z,28.91
2022-09-03T07:12:14.191Z,29.13
2022-09-03T07:14:40.859Z,29.30
2022-09-03T07:17:09.346Z,30.28
2022-09-03T07:19:35.730Z,30.51
2022-09-03T07:22:02.237Z,31.01
2022-09-03T07:24:28.630Z,30.69
2022-09-03T07:26:55.029Z,30.59
2022-09-03T07:29:26.007Z,31.08
2022-09-03T07:31:53.354Z,32.10
2022-09-03T07:34:22.264Z,32.63
2022-09-03T07:36:49.136Z,32.13
2022-09-03T07:39:16.862Z,31.69
2022-09-03T07:41:45.965Z,32.33
2022-09-03T07:44:16.909Z,32.31
2022-09-03T07:46:43.784Z,32.40
2022-09-03T07:49:10.537Z,32.80
2022-09-03T07:51:38.500Z,34.31
2022-09-03T07:54:07.358Z,32.21
2022-09-03T07:56:35.200Z,32.27
2022-09-03T07:59:02.315Z,29.62
2022-09-03T08:01:30.289Z,31.10
2022-09-03T08:03:57.311Z,32.27
2022-09-03T08:06:26.522Z,32.24
2022-09-03T08:09:04.536Z,33.43
2022-09-03T08:11:34.140Z,32.86
2022-09-03T08:14:03.259Z,33.14
2022-09-03T08:16:32.712Z,32.55
2022-09-03T08:18:59.602Z,33.63
2022-09-03T08:21:27.341Z,33.07
2022-09-03T08:23:55.599Z,33.55
2022-09-03T08:26:22.406Z,34.18
2022-09-03T08:28:49.248Z,34.54
2022-09-03T08:31:18.755Z,36.31
2022-09-03T08:33:47.920Z,35.17
2022-09-03T08:36:17.108Z,34.69
2022-09-03T08:38:45.118Z,36.02
2022-09-03T08:41:37.786Z,35.97
2022-09-03T08:44:28.151Z,33.98
2022-09-03T08:47:02.090Z,32.97
2022-09-03T08:49:42.130Z,34.86
2022-09-03T08:52:22.156Z,35.16
2022-09-03T08:54:51.572Z,35.00
2022-09-03T08:57:20.881Z,36.53
2022-09-03T08:59:51.418Z,37.50
2022-09-03T09:02:44.473Z,36.90
2022-09-03T09:05:28.783Z,35.32
2022-09-03T09:08:24.418Z,34.95
2022-09-03T09:11:05.352Z,36.45
2022-09-03T09:13:46.370Z,36.53
2022-09-03T09:16:23.574Z,36.33
2022-09-03T09:19:00.320Z,37.89
2022-09-03T09:21:50.124Z,36.94
2022-09-03T09:24:24.248Z,38.09
2022-09-03T09:26:58.764Z,35.37
2022-09-03T09:29:29.106Z,34.35
2022-09-03T09:31:56.022Z,35.63
2022-09-03T09:34:22.661Z,35.60
2022-09-03T09:36:52.805Z,34.87
2022-09-03T09:39:19.976Z,35.04
2022-09-03T09:42:01.104Z,36.24
2022-09-03T09:44:27.654Z,36.98
2022-09-03T09:47:04.733Z,37.37
2022-09-03T09:49:33.950Z,37.94
2022-09-03T09:52:02.438Z,38.35
2022-09-03T09:54:29.017Z,38.56
2022-09-03T09:57:00.618Z,37.86
2022-09-03T09:59:27.096Z,37.77
2022-09-03T10:02:07.705Z,36.39
2022-09-03T10:04:34.374Z,35.21
2022-09-03T10:07:26.209Z,36.19
2022-09-03T10:10:17.306Z,36.35
2022-09-03T10:13:16.079Z,35.58
2022-09-03T10:15:50.521Z,35.46
2022-09-03T10:18:24.359Z,35.70
2022-09-03T10:21:05.017Z,35.67
2022-09-03T10:23:46.796Z,36.82
2022-09-03T10:26:17.097Z,35.94
2022-09-03T10:28:56.048Z,37.16
2022-09-03T10:31:32.644Z,36.99
2022-09-03T10:34:21.043Z,34.91
2022-09-03T10:37:00.188Z,34.73
2022-09-03T10:39:59.873Z,35.00
2022-09-03T10:42:46.709Z,35.09
2022-09-03T10:45:28.286Z,35.23
2022-09-03T10:48:09.667Z,35.14
2022-09-03T10:50:48.019Z,34.98
2022-09-03T10:53:25.568Z,36.22
2022-09-03T10:56:17.508Z,36.93
2022-09-03T10:59:07.627Z,36.25
2022-09-03T11:02:01.973Z,37.56
2022-09-03T11:04:39.987Z,37.45
2022-09-03T11:07:12.305Z,37.18
2022-09-03T11:09:44.082Z,37.58
2022-09-03T11:12:40.378Z,36.96
2022-09-03T11:15:15.696Z,35.95
2022-09-03T11:17:54.727Z,37.04
2022-09-03T11:20:24.155Z,36.35
2022-09-03T11:22:55.699Z,36.15
2022-09-03T11:25:35.527Z,35.52
2022-09-03T11:28:10.809Z,34.14
2022-09-03T11:30:49.968Z,34.39
2022-09-03T11:33:20.765Z,34.37
2022-09-03T11:35:54.527Z,34.45
2022-09-03T11:38:22.638Z,33.91
2022-09-03T11:41:13.486Z,33.90
2022-09-03T11:43:41.203Z,33.27
2022-09-03T11:46:28.364Z,33.82
2022-09-03T11:49:25.269Z,33.23
2022-09-03T11:51:59.371Z,32.79
2022-09-03T11:54:26.433Z,31.92
2022-09-03T11:57:37.949Z,32.39
2022-09-03T12:00:22.483Z,31.69
2022-09-03T12:02:58.168Z,30.68
2022-09-03T12:05:48.465Z,29.41
2022-09-03T12:08:33.417Z,29.22
2022-09-03T12:11:21.004Z,28.14
2022-09-03T12:14:06.462Z,28.07
2022-09-03T12:16:40.383Z,28.02
2022-09-03T12:19:25.949Z,27.81
2022-09-03T12:21:52.531Z,27.51
2022-09-03T12:24:19.923Z,27.48
2022-09-03T12:26:46.428Z,27.63
2022-09-03T12:29:28.255Z,27.78
2022-09-03T12:32:07.367Z,27.59
2022-09-03T12:34:33.929Z,27.57
2022-09-03T12:37:00.446Z,27.48
2022-09-03T12:42:22.441Z,27.72
2022-09-03T12:44:48.903Z,27.81
2022-09-03T12:47:36.156Z,27.77
2022-09-03T12:50:12.254Z,27.61
2022-09-03T12:52:44.239Z,27.61
2022-09-03T12:55:37.751Z,27.40
2022-09-03T12:58:13.871Z,27.44
2022-09-03T13:00:54.246Z,27.38
2022-09-03T13:03:42.841Z,27.57
2022-09-03T13:06:16.012Z,27.89
2022-09-03T13:09:07.753Z,27.90
2022-09-03T13:11:35.385Z,27.65
2022-09-03T13:14:05.093Z,27.53
2022-09-03T13:16:46.951Z,27.38
2022-09-03T13:19:21.923Z,27.76
2022-09-03T13:21:54.400Z,27.96
2022-09-03T13:24:37.116Z,28.10
2022-09-03T13:27:18.471Z,28.12
2022-09-03T13:29:55.223Z,28.36
2022-09-03T13:32:36.753Z,28.12
2022-09-03T13:35:28.399Z,28.23
2022-09-03T13:38:42.776Z,28.52
2022-09-03T13:41:36.512Z,28.25
2022-09-03T13:44:20.340Z,28.36
2022-09-03T13:47:08.585Z,28.53
2022-09-03T13:49:42.363Z,28.26
2022-09-03T13:52:19.130Z,28.11
2022-09-03T13:54:53.123Z,28.00
2022-09-03T13:57:39.988Z,28.43
2022-09-03T14:00:12.819Z,28.55
2022-09-03T14:02:57.018Z,28.53
2022-09-03T14:05:23.387Z,28.22
2022-09-03T14:07:58.761Z,28.36
2022-09-03T14:11:02.726Z,28.51
2022-09-03T14:13:48.575Z,28.42
2022-09-03T14:16:35.397Z,28.74
2022-09-03T14:19:22.499Z,28.89
2022-09-03T14:22:01.632Z,28.80
2022-09-03T14:24:52.757Z,28.90
2022-09-03T14:27:24.804Z,28.70
2022-09-03T14:29:58.305Z,28.91
2022-09-03T14:32:29.860Z,28.61
2022-09-03T14:34:59.210Z,28.20
2022-09-03T14:37:31.785Z,28.31
2022-09-03T14:40:16.978Z,28.35
2022-09-03T14:42:46.521Z,28.23
2022-09-03T14:45:33.232Z,28.46
2022-09-03T14:48:27.559Z,28.78
2022-09-03T14:51:35.984Z,28.97
2022-09-03T14:54:20.828Z,28.80
2022-09-03T14:56:55.941Z,28.85
2022-09-03T14:59:34.000Z,28.63
2022-09-03T15:02:27.762Z,28.67
2022-09-03T15:05:30.384Z,28.27
2022-09-03T15:08:08.090Z,28.60
2022-09-03T15:10:45.548Z,28.86
2022-09-03T15:13:17.820Z,28.39
2022-09-03T15:16:06.023Z,28.63
2022-09-03T15:18:44.872Z,28.32
2022-09-03T15:22:06.261Z,28.18
2022-09-03T15:24:41.094Z,28.20
2022-09-03T15:27:13.398Z,28.48
2022-09-03T15:30:05.882Z,28.28
2022-09-03T15:32:58.151Z,28.12
2022-09-03T15:35:49.466Z,28.01
2022-09-03T15:38:47.648Z,27.61
2022-09-03T15:41:36.892Z,27.41
2022-09-03T15:44:12.767Z,27.51
2022-09-03T15:46:45.192Z,27.51
2022-09-03T15:49:44.953Z,27.37
2022-09-03T15:52:31.263Z,27.48
2022-09-03T15:55:00.454Z,27.62
2022-09-03T15:57:35.164Z,27.52
2022-09-03T16:00:12.259Z,27.59
2022-09-03T16:02:45.854Z,27.67
2022-09-03T16:05:15.290Z,27.68
2022-09-03T16:07:57.653Z,27.44
2022-09-03T16:10:42.728Z,27.50
2022-09-03T16:13:30.916Z,27.25
2022-09-03T16:16:07.707Z,27.38
2022-09-03T16:18:49.800Z,27.36
2022-09-03T16:21:22.360Z,27.48
2022-09-03T16:24:13.164Z,27.34
2022-09-03T16:27:00.194Z,27.47
2022-09-03T16:29:30.072Z,27.11
2022-09-03T16:32:14.808Z,27.12
2022-09-03T16:34:57.661Z,27.13
2022-09-03T16:37:57.904Z,27.30
2022-09-03T16:40:36.725Z,26.74
2022-09-03T16:43:40.263Z,26.74
2022-09-03T16:46:34.306Z,26.68
2022-09-03T16:49:06.808Z,26.65
2022-09-03T16:52:05.564Z,26.26
2022-09-03T16:55:09.613Z,26.31
2022-09-03T16:57:52.176Z,26.22
2022-09-03T17:00:21.717Z,26.07
2022-09-03T17:03:08.900Z,26.19
2022-09-03T17:05:38.293Z,25.94
2022-09-03T17:08:25.510Z,25.67
2022-09-03T17:11:07.096Z,25.60
2022-09-03T17:13:56.995Z,25.50
2022-09-03T17:16:41.557Z,25.22
2022-09-03T17:19:44.932Z,24.91
2022-09-03T17:22:25.536Z,24.53
2022-09-03T17:24:57.112Z,24.31
2022-09-03T17:27:57.430Z,24.29
2022-09-03T17:30:36.572Z,24.14
2022-09-03T17:33:23.909Z,23.79
2022-09-03T17:36:05.914Z,23.61
2022-09-03T17:38:58.188Z,23.47
2022-09-03T17:41:34.475Z,23.38
2022-09-03T17:44:13.097Z,23.23
2022-09-03T17:46:45.936Z,23.09
2022-09-03T17:49:26.170Z,22.91
2022-09-03T17:52:07.091Z,22.76
2022-09-03T17:54:43.023Z,22.68
2022-09-03T17:57:26.408Z,22.64
2022-09-03T18:00:12.168Z,22.48
2022-09-03T18:03:02.125Z,22.31
2022-09-03T18:05:46.327Z,22.23
2022-09-03T18:08:16.451Z,22.17
2022-09-03T18:11:10.900Z,21.98
2022-09-03T18:13:43.365Z,21.88
2022-09-03T18:16:24.038Z,21.72
2022-09-03T18:18:52.118Z,21.56
2022-09-03T18:21:29.230Z,21.43
2022-09-03T18:24:11.558Z,21.44
2022-09-03T18:26:46.593Z,21.39
2022-09-03T18:29:57.607Z,21.21
2022-09-03T18:32:24.098Z,21.04
2022-09-03T18:34:50.571Z,20.91
2022-09-03T18:37:27.898Z,20.84
2022-09-03T18:39:54.362Z,20.79
2022-09-03T18:42:51.193Z,20.69
2022-09-03T18:46:05.224Z,20.59
2022-09-03T18:48:30.785Z,20.53
2022-09-03T18:51:25.739Z,20.45
2022-09-03T18:54:21.684Z,20.28
2022-09-03T18:56:50.433Z,20.09
2022-09-03T18:59:32.071Z,20.03
2022-09-03T19:01:59.592Z,19.88
2022-09-03T19:04:54.762Z,19.85
2022-09-03T19:07:33.276Z,19.70
2022-09-03T19:10:02.709Z,19.58
2022-09-03T19:12:58.731Z,19.54
2022-09-03T19:15:47.365Z,19.55
2022-09-03T19:18:56.258Z,19.55
2022-09-03T19:21:38.829Z,19.48
2022-09-03T19:24:05.535Z,19.43
2022-09-03T19:26:45.458Z,19.41
2022-09-03T19:29:25.709Z,19.34
2022-09-03T19:32:04.291Z,19.28
2022-09-03T19:35:02.561Z,19.22
2022-09-03T19:37:47.777Z,19.15
2022-09-03T19:40:38.855Z,19.05
2022-09-03T19:43:47.777Z,18.96
2022-09-03T19:46:22.370Z,18.93
2022-09-03T19:49:07.088Z,18.91
2022-09-03T19:52:04.279Z,18.78
2022-09-03T19:54:32.084Z,18.75
2022-09-03T19:56:58.471Z,18.80
2022-09-03T19:59:29.057Z,18.76
2022-09-03T20:01:55.733Z,18.67
2022-09-03T20:04:31.501Z,18.61
2022-09-03T20:07:01.431Z,18.85
2022-09-03T20:09:34.049Z,18.77
2022-09-03T20:12:09.197Z,18.64
2022-09-03T20:14:37.109Z,18.54
2022-09-03T20:17:22.008Z,18.54
2022-09-03T20:19:51.453Z,18.43
2022-09-03T20:22:39.267Z,18.45
2022-09-03T20:25:49.829Z,18.36
2022-09-03T20:28:40.443Z,18.30
2022-09-03T20:31:29.708Z,18.19
2022-09-03T20:34:20.545Z,18.11
2022-09-03T20:37:05.851Z,18.11
2022-09-03T20:39:38.970Z,18.12
2022-09-03T20:42:11.028Z,18.06
2022-09-03T20:44:37.417Z,17.99
2022-09-03T20:47:17.638Z,17.94
2022-09-03T20:50:02.893Z,17.91
2022-09-03T20:52:41.253Z,17.78
2022-09-03T20:55:44.541Z,17.73
2022-09-03T20:58:29.800Z,17.68
2022-09-03T21:01:05.018Z,17.62
2022-09-03T21:03:45.706Z,17.50
2022-09-03T21:06:42.496Z,17.47
2022-09-03T21:09:08.932Z,17.50
2022-09-03T21:11:43.594Z,17.41
2022-09-03T21:14:25.045Z,17.39
2022-09-03T21:17:18.468Z,17.29
2022-09-03T21:20:08.697Z,17.30
2022-09-03T21:22:58.135Z,17.23
2022-09-03T21:25:31.481Z,17.16
2022-09-03T21:28:03.508Z,17.19
2022-09-03T21:30:31.642Z,17.17
2022-09-03T21:33:09.329Z,17.14
2022-09-03T21:35:50.514Z,17.05
2022-09-03T21:38:31.197Z,17.04
2022-09-03T21:41:08.097Z,17.00
2022-09-03T21:43:45.300Z,16.97
2022-09-03T21:46:31.044Z,16.93
2022-09-03T21:49:03.407Z,16.91
2022-09-03T21:51:39.223Z,16.90
2022-09-03T21:54:17.857Z,16.95
2022-09-03T21:56:59.643Z,16.91
2022-09-03T21:59:47.839Z,16.92
2022-09-03T22:02:30.654Z,16.94
2022-09-03T22:04:58.008Z,16.93
2022-09-03T22:07:42.801Z,16.97
2022-09-03T22:10:28.417Z,16.90
2022-09-03T22:13:30.341Z,16.93
2022-09-03T22:16:17.163Z,16.89
2022-09-03T22:18:43.657Z,16.85
2022-09-03T22:21:12.733Z,16.85
2022-09-03T22:23:45.233Z,16.89
2022-09-03T22:26:32.537Z,16.84
2022-09-03T22:29:05.686Z,16.83
2022-09-03T22:31:49.549Z,16.84
2022-09-03T22:34:26.487Z,16.86
2022-09-03T22:37:06.793Z,16.87
2022-09-03T22:39:48.654Z,16.89
2022-09-03T22:42:39.968Z,16.86
2022-09-03T22:45:32.620Z,16.88
2022-09-03T22:48:31.481Z,16.94
2022-09-03T22:51:02.254Z,17.03
2022-09-03T22:53:50.071Z,17.05
2022-09-03T22:56:18.847Z,17.01
2022-09-03T22:59:07.437Z,17.02
2022-09-03T23:01:43.513Z,17.00
2022-09-03T23:04:20.651Z,17.00
2022-09-03T23:07:15.977Z,17.02
2022-09-03T23:09:44.360Z,17.05
2022-09-03T23:12:16.772Z,17.04
2022-09-03T23:14:47.989Z,17.05
2022-09-03T23:22:45.141Z,16.89
2022-09-03T23:25:19.171Z,16.86
2022-09-03T23:27:56.424Z,16.86
2022-09-03T23:30:22.804Z,16.86
2022-09-03T23:32:55.050Z,16.76
2022-09-03T23:35:38.407Z,16.74
2022-09-03T23:38:18.166Z,16.72
2022-09-03T23:40:49.506Z,16.66
2022-09-03T23:43:37.672Z,16.63
2022-09-03T23:46:29.370Z,16.55
2022-09-03T23:49:08.678Z,16.53
2022-09-03T23:51:53.431Z,16.51
2022-09-03T23:54:22.978Z,16.47
2022-09-03T23:57:01.770Z,16.47
2022-09-03T23:59:59.459Z,16.43
